createdAt,value
2018-11-25T00:01:11.641Z,54.60
2018-11-25T00:03:38.620Z,55.43
2018-11-25T00:06:04.578Z,54.84
2018-11-25T00:08:30.528Z,53.83
2018-11-25T00:10:56.473Z,52.68
2018-11-25T00:13:22.433Z,51.34
2018-11-25T00:15:48.374Z,50.46
2018-11-25T00:18:14.368Z,51.45
2018-11-25T00:20:40.350Z,52.19
2018-11-25T00:23:06.332Z,52.28
2018-11-25T00:25:32.322Z,52.84
2018-11-25T00:27:58.321Z,53.14
2018-11-25T00:30:24.298Z,53.95
2018-11-25T00:32:50.263Z,53.92
2018-11-25T00:35:16.227Z,54.08
2018-11-25T00:37:47.942Z,52.47
2018-11-25T00:40:08.236Z,51.45
2018-11-25T00:42:34.227Z,53.45
2018-11-25T00:45:00.195Z,53.57
2018-11-25T00:47:26.211Z,54.89
2018-11-25T00:49:52.169Z,54.53
2018-11-25T00:52:18.136Z,54.92
2018-11-25T00:54:44.095Z,55.24
2018-11-25T00:57:10.058Z,55.36
2018-11-25T00:59:36.007Z,55.45
2018-11-25T01:02:01.956Z,55.95
2018-11-25T01:04:27.907Z,55.32
2018-11-25T01:06:53.873Z,55.99
2018-11-25T01:09:19.936Z,56.04
2018-11-25T01:11:45.867Z,56.40
2018-11-25T01:14:11.830Z,56.58
2018-11-25T01:16:39.629Z,56.77
2018-11-25T01:19:05.622Z,54.59
2018-11-25T01:21:31.560Z,53.82
2018-11-25T01:23:57.543Z,53.60
2018-11-25T01:26:23.495Z,52.82
2018-11-25T01:28:49.491Z,53.43
2018-11-25T01:31:15.444Z,53.05
2018-11-25T01:33:41.463Z,52.33
2018-11-25T01:36:07.403Z,53.48
2018-11-25T01:38:33.373Z,53.16
2018-11-25T01:40:59.337Z,51.03
2018-11-25T01:43:25.286Z,51.65
2018-11-25T01:45:51.316Z,53.26
2018-11-25T01:48:17.300Z,53.57
2018-11-25T01:50:43.270Z,54.98
2018-11-25T01:53:09.255Z,54.75
2018-11-25T01:55:35.203Z,55.51
2018-11-25T01:58:01.180Z,55.88
2018-11-25T02:00:27.146Z,56.57
2018-11-25T02:02:53.115Z,55.97
2018-11-25T02:05:19.071Z,56.09
2018-11-25T02:07:45.049Z,56.15
2018-11-25T02:10:11.021Z,54.99
2018-11-25T02:12:36.998Z,55.31
2018-11-25T02:15:02.966Z,55.20
2018-11-25T02:17:28.939Z,54.63
2018-11-25T02:19:54.911Z,55.41
2018-11-25T02:22:20.895Z,55.29
2018-11-25T02:27:18.203Z,55.68
2018-11-25T02:29:44.175Z,56.09
2018-11-25T02:32:10.153Z,55.59
2018-11-25T02:34:36.152Z,55.70
2018-11-25T02:37:02.122Z,55.82
2018-11-25T02:39:28.073Z,55.86
2018-11-25T02:41:54.048Z,55.88
2018-11-25T02:44:20.024Z,55.33
2018-11-25T02:46:45.969Z,55.14
2018-11-25T02:49:11.920Z,54.54
2018-11-25T02:51:37.910Z,54.24
2018-11-25T02:54:03.861Z,55.55
2018-11-25T02:56:29.808Z,56.46
2018-11-25T02:58:55.750Z,56.65
2018-11-25T03:01:21.713Z,56.78
2018-11-25T03:03:47.680Z,56.75
2018-11-25T03:06:13.676Z,57.40
2018-11-25T03:08:39.656Z,57.20
2018-11-25T03:11:05.653Z,55.89
2018-11-25T03:13:31.626Z,56.39
2018-11-25T03:15:57.576Z,55.37
2018-11-25T03:18:23.549Z,56.13
2018-11-25T03:20:49.891Z,55.92
2018-11-25T03:23:15.871Z,55.76
2018-11-25T03:25:41.856Z,54.78
2018-11-25T03:28:07.838Z,53.87
2018-11-25T03:30:33.796Z,54.17
2018-11-25T03:32:59.758Z,52.50
2018-11-25T03:35:25.743Z,52.19
2018-11-25T03:37:51.696Z,53.87
2018-11-25T03:40:17.656Z,54.09
2018-11-25T03:42:43.659Z,54.11
2018-11-25T03:45:10.529Z,53.92
2018-11-25T03:47:36.529Z,53.35
2018-11-25T03:50:02.499Z,53.47
2018-11-25T03:52:28.456Z,52.83
2018-11-25T03:54:54.409Z,53.44
2018-11-25T03:57:20.379Z,53.52
2018-11-25T03:59:46.347Z,53.80
2018-11-25T04:02:12.320Z,52.59
2018-11-25T04:04:38.320Z,52.51
2018-11-25T04:07:04.281Z,55.89
2018-11-25T04:09:30.241Z,54.29
2018-11-25T04:11:56.244Z,54.48
2018-11-25T04:14:22.201Z,52.55
2018-11-25T04:16:48.163Z,53.25
2018-11-25T04:19:14.135Z,53.75
2018-11-25T04:21:40.125Z,52.26
2018-11-25T04:24:06.075Z,52.13
2018-11-25T04:26:32.047Z,53.29
2018-11-25T04:28:58.003Z,54.21
2018-11-25T04:31:23.972Z,53.43
2018-11-25T04:33:49.916Z,52.06
2018-11-25T04:36:15.877Z,52.02
2018-11-25T04:38:41.852Z,50.67
2018-11-25T04:41:07.808Z,50.54
2018-11-25T04:43:33.766Z,50.80
2018-11-25T04:45:59.727Z,50.70
2018-11-25T04:48:25.700Z,52.25
2018-11-25T04:50:51.660Z,53.94
2018-11-25T04:53:17.615Z,53.86
2018-11-25T04:55:43.578Z,54.34
2018-11-25T04:58:09.551Z,53.99
2018-11-25T05:00:35.524Z,53.72
2018-11-25T05:03:01.476Z,53.50
2018-11-25T05:05:27.419Z,52.17
2018-11-25T05:07:53.404Z,51.00
2018-11-25T05:10:19.357Z,52.12
2018-11-25T05:12:45.334Z,51.77
2018-11-25T05:15:11.307Z,52.41
2018-11-25T05:17:37.261Z,51.71
2018-11-25T05:20:03.207Z,51.79
2018-11-25T05:22:29.146Z,52.28
2018-11-25T05:24:55.124Z,52.50
2018-11-25T05:27:21.114Z,52.35
2018-11-25T05:29:47.076Z,52.02
2018-11-25T05:32:13.058Z,51.46
2018-11-25T05:34:39.031Z,51.32
2018-11-25T05:37:04.989Z,51.43
2018-11-25T05:39:30.934Z,51.68
2018-11-25T05:41:56.904Z,50.43
2018-11-25T05:44:22.885Z,50.68
2018-11-25T05:46:48.850Z,51.27
2018-11-25T05:49:14.809Z,51.15
2018-11-25T05:51:40.768Z,51.47
2018-11-25T05:54:06.744Z,52.09
2018-11-25T05:56:32.708Z,51.28
2018-11-25T05:58:58.650Z,52.12
2018-11-25T06:01:24.649Z,51.73
2018-11-25T06:03:50.647Z,52.92
2018-11-25T06:06:16.617Z,51.52
2018-11-25T06:08:42.581Z,50.83
2018-11-25T06:11:08.523Z,52.05
2018-11-25T06:13:34.471Z,51.86
2018-11-25T06:16:00.443Z,50.74
2018-11-25T06:18:26.421Z,51.31
2018-11-25T06:20:52.383Z,50.02
2018-11-25T06:23:18.331Z,49.64
2018-11-25T06:25:44.300Z,51.09
2018-11-25T06:28:10.240Z,51.24
2018-11-25T06:30:36.194Z,50.71
2018-11-25T06:33:02.178Z,50.21
2018-11-25T06:35:28.121Z,50.23
2018-11-25T06:37:54.118Z,50.72
2018-11-25T06:40:20.063Z,51.27
2018-11-25T06:42:46.046Z,52.11
2018-11-25T06:45:11.990Z,52.83
2018-11-25T06:47:37.970Z,51.04
2018-11-25T06:50:03.922Z,52.09
2018-11-25T06:52:29.923Z,53.64
2018-11-25T06:54:55.896Z,53.50
2018-11-25T06:57:21.876Z,53.78
2018-11-25T06:59:47.842Z,52.48
2018-11-25T07:02:13.784Z,51.89
2018-11-25T07:04:39.760Z,51.69
2018-11-25T07:07:05.708Z,51.81
2018-11-25T07:09:31.668Z,50.41
2018-11-25T07:11:57.639Z,51.76
2018-11-25T07:14:23.607Z,51.72
2018-11-25T07:16:49.608Z,52.33
2018-11-25T07:19:16.413Z,52.16
2018-11-25T07:21:42.392Z,51.98
2018-11-25T07:24:08.357Z,53.21
2018-11-25T07:26:34.336Z,53.80
2018-11-25T07:29:00.304Z,53.69
2018-11-25T07:31:26.286Z,53.97
2018-11-25T07:33:52.257Z,54.16
2018-11-25T07:36:18.215Z,53.38
2018-11-25T07:38:44.168Z,53.51
2018-11-25T07:41:11.357Z,54.34
2018-11-25T07:43:37.328Z,53.38
2018-11-25T07:46:03.294Z,54.23
2018-11-25T07:48:29.255Z,53.06
2018-11-25T07:50:55.203Z,52.79
2018-11-25T07:53:21.197Z,52.47
2018-11-25T07:55:47.151Z,51.75
2018-11-25T07:58:13.114Z,50.33
2018-11-25T08:00:39.057Z,49.60
2018-11-25T08:03:05.084Z,49.37
2018-11-25T08:05:31.034Z,51.06
2018-11-25T08:07:56.991Z,53.41
2018-11-25T08:10:22.932Z,53.54
2018-11-25T08:12:48.885Z,52.91
2018-11-25T08:15:14.846Z,52.40
2018-11-25T08:17:40.795Z,52.73
2018-11-25T08:20:06.765Z,52.88
2018-11-25T08:22:32.736Z,51.00
2018-11-25T08:24:58.720Z,51.79
2018-11-25T08:27:24.698Z,55.11
2018-11-25T08:29:50.653Z,54.60
2018-11-25T08:32:16.618Z,53.41
2018-11-25T08:34:42.584Z,53.26
2018-11-25T08:37:08.542Z,52.55
2018-11-25T08:39:34.560Z,54.78
2018-11-25T08:42:00.541Z,53.86
2018-11-25T08:44:26.540Z,53.23
2018-11-25T08:46:52.614Z,52.79
2018-11-25T08:49:18.593Z,51.92
2018-11-25T08:51:44.648Z,51.01
2018-11-25T08:54:10.639Z,50.85
2018-11-25T08:56:36.580Z,52.41
2018-11-25T08:59:02.671Z,50.77
2018-11-25T09:01:28.639Z,52.49
2018-11-25T09:03:54.805Z,52.00
2018-11-25T09:06:21.752Z,51.39
2018-11-25T09:08:47.726Z,51.83
2018-11-25T09:11:13.676Z,52.16
2018-11-25T09:13:39.653Z,51.41
2018-11-25T09:16:05.645Z,51.24
2018-11-25T09:18:31.608Z,51.18
2018-11-25T09:20:57.602Z,50.76
2018-11-25T09:23:23.584Z,51.67
2018-11-25T09:25:49.575Z,51.17
2018-11-25T09:28:15.587Z,51.01
2018-11-25T09:30:41.585Z,52.66
2018-11-25T09:33:07.688Z,53.12
2018-11-25T09:35:33.659Z,53.33
2018-11-25T09:37:59.590Z,52.38
2018-11-25T09:40:25.574Z,53.37
2018-11-25T09:42:51.550Z,52.11
2018-11-25T09:45:17.523Z,52.91
2018-11-25T09:47:43.471Z,53.04
2018-11-25T09:50:09.546Z,52.29
2018-11-25T09:52:36.202Z,51.93
2018-11-25T09:55:03.104Z,52.85
2018-11-25T09:57:29.099Z,54.64
2018-11-25T09:59:57.537Z,53.21
2018-11-25T10:02:23.517Z,51.47
2018-11-25T10:04:49.490Z,51.36
2018-11-25T10:07:15.436Z,53.05
2018-11-25T10:09:41.428Z,54.01
2018-11-25T10:12:07.383Z,53.19
2018-11-25T10:14:33.353Z,52.03
2018-11-25T10:16:59.350Z,53.11
2018-11-25T10:19:25.392Z,53.33
2018-11-25T10:21:51.439Z,52.60
2018-11-25T10:24:17.436Z,51.07
2018-11-25T10:26:43.411Z,51.17
2018-11-25T10:29:09.680Z,51.62
2018-11-25T10:31:35.639Z,49.62
2018-11-25T10:34:01.599Z,49.61
2018-11-25T10:36:27.567Z,51.31
2018-11-25T10:38:53.514Z,49.97
2018-11-25T10:41:19.536Z,49.14
2018-11-25T10:43:45.775Z,51.14
2018-11-25T10:46:11.781Z,51.33
2018-11-25T10:48:37.772Z,52.36
2018-11-25T10:51:05.042Z,50.35
2018-11-25T10:53:30.989Z,50.91
2018-11-25T10:55:56.981Z,50.30
2018-11-25T10:58:22.958Z,52.14
2018-11-25T11:00:48.965Z,53.02
2018-11-25T11:03:14.953Z,51.18
2018-11-25T11:05:40.953Z,52.23
2018-11-25T11:08:06.924Z,53.43
2018-11-25T11:10:32.874Z,52.85
2018-11-25T11:12:59.009Z,54.05
2018-11-25T11:15:24.868Z,55.71
2018-11-25T11:17:50.839Z,54.61
2018-11-25T11:20:16.829Z,54.64
2018-11-25T11:22:42.795Z,56.08
2018-11-25T11:25:08.770Z,55.04
2018-11-25T11:27:34.769Z,53.30
2018-11-25T11:30:00.738Z,54.80
2018-11-25T11:32:26.713Z,53.67
2018-11-25T11:34:52.696Z,52.32
2018-11-25T11:37:18.695Z,52.98
2018-11-25T11:39:44.670Z,50.09
2018-11-25T11:42:10.627Z,52.21
2018-11-25T11:44:36.580Z,49.73
2018-11-25T11:47:02.556Z,50.08
2018-11-25T11:49:28.535Z,51.97
2018-11-25T11:51:54.542Z,54.52
2018-11-25T11:54:20.527Z,55.06
2018-11-25T11:56:46.509Z,54.49
2018-11-25T11:59:12.483Z,53.57
2018-11-25T12:01:38.432Z,52.88
2018-11-25T12:04:04.420Z,52.93
2018-11-25T12:06:30.459Z,51.60
2018-11-25T12:08:56.418Z,49.45
2018-11-25T12:11:22.396Z,52.77
2018-11-25T12:13:48.374Z,51.79
2018-11-25T12:16:15.179Z,53.38
2018-11-25T12:18:41.235Z,54.72
2018-11-25T12:21:07.235Z,56.50
2018-11-25T12:23:33.299Z,56.47
2018-11-25T12:25:59.271Z,55.96
2018-11-25T12:28:26.826Z,54.53
2018-11-25T12:30:52.840Z,53.03
2018-11-25T12:33:19.692Z,51.02
2018-11-25T12:35:48.694Z,52.34
2018-11-25T12:38:14.710Z,50.02
2018-11-25T12:40:41.264Z,50.49
2018-11-25T12:43:07.324Z,51.65
2018-11-25T12:45:33.416Z,50.55
2018-11-25T12:47:59.408Z,49.41
2018-11-25T12:50:25.388Z,49.40
2018-11-25T12:52:51.355Z,50.42
2018-11-25T12:55:17.325Z,50.08
2018-11-25T12:57:43.295Z,49.88
2018-11-25T13:00:09.246Z,51.11
2018-11-25T13:02:35.247Z,51.12
2018-11-25T13:05:01.211Z,49.37
2018-11-25T13:07:27.155Z,49.08
2018-11-25T13:09:53.718Z,49.88
2018-11-25T13:12:19.700Z,48.85
2018-11-25T13:14:46.712Z,49.89
2018-11-25T13:17:12.679Z,49.05
2018-11-25T13:19:38.672Z,50.42
2018-11-25T13:22:04.628Z,49.80
2018-11-25T13:24:30.613Z,50.16
2018-11-25T13:26:56.590Z,51.86
2018-11-25T13:29:22.587Z,50.55
2018-11-25T13:31:48.550Z,48.70
2018-11-25T13:34:14.543Z,49.09
2018-11-25T13:36:40.525Z,49.03
2018-11-25T13:39:06.519Z,48.71
2018-11-25T13:41:32.502Z,48.61
2018-11-25T13:43:58.504Z,48.35
2018-11-25T13:46:24.488Z,49.47
2018-11-25T13:48:50.571Z,47.96
2018-11-25T13:51:16.614Z,50.20
2018-11-25T13:53:42.607Z,49.79
2018-11-25T13:56:08.558Z,48.34
2018-11-25T13:58:34.603Z,50.55
2018-11-25T14:01:00.607Z,49.50
2018-11-25T14:03:26.667Z,48.47
2018-11-25T14:05:53.503Z,47.84
2018-11-25T14:08:19.317Z,47.53
2018-11-25T14:10:45.960Z,47.46
2018-11-25T14:13:11.937Z,49.12
2018-11-25T14:15:37.936Z,47.81
2018-11-25T14:18:03.972Z,47.58
2018-11-25T14:20:30.021Z,49.21
2018-11-25T14:22:56.542Z,49.30
2018-11-25T14:25:22.539Z,48.86
2018-11-25T14:27:49.211Z,48.30
2018-11-25T14:30:15.348Z,48.69
2018-11-25T14:32:41.782Z,49.30
2018-11-25T14:35:08.788Z,49.04
2018-11-25T14:37:34.838Z,49.94
2018-11-25T14:40:00.921Z,50.29
2018-11-25T14:42:27.006Z,50.93
2018-11-25T14:44:53.899Z,49.02
2018-11-25T14:47:20.484Z,48.54
2018-11-25T14:49:46.504Z,50.71
2018-11-25T14:52:12.500Z,50.40
2018-11-25T14:54:38.530Z,49.98
2018-11-25T14:57:04.558Z,48.51
2018-11-25T14:59:30.529Z,48.44
2018-11-25T15:01:56.513Z,48.16
2018-11-25T15:04:22.536Z,48.07
2018-11-25T15:06:48.536Z,48.81
2018-11-25T15:09:14.531Z,50.10
2018-11-25T15:11:40.588Z,49.00
2018-11-25T15:14:06.723Z,48.99
2018-11-25T15:16:32.722Z,49.75
2018-11-25T15:18:58.718Z,49.29
2018-11-25T15:21:24.668Z,49.69
2018-11-25T15:23:50.680Z,49.18
2018-11-25T15:26:16.637Z,51.37
2018-11-25T15:28:42.605Z,49.55
2018-11-25T15:31:08.725Z,48.32
2018-11-25T15:33:34.827Z,47.82
2018-11-25T15:36:00.834Z,47.62
2018-11-25T15:38:26.798Z,49.27
2018-11-25T15:40:52.824Z,48.47
2018-11-25T15:43:19.048Z,49.00
2018-11-25T15:45:45.063Z,50.98
2018-11-25T15:48:11.031Z,49.60
2018-11-25T15:50:37.015Z,48.71
2018-11-25T15:53:03.455Z,48.47
2018-11-25T15:55:29.461Z,50.28
2018-11-25T15:57:55.636Z,49.64
2018-11-25T16:00:21.679Z,49.01
2018-11-25T16:02:47.675Z,49.39
2018-11-25T16:05:13.684Z,47.86
2018-11-25T16:07:39.649Z,48.41
2018-11-25T16:10:05.670Z,48.24
2018-11-25T16:12:31.669Z,48.72
2018-11-25T16:14:57.786Z,48.44
2018-11-25T16:17:23.807Z,49.52
2018-11-25T16:19:49.789Z,49.73
2018-11-25T16:22:15.772Z,49.22
2018-11-25T16:24:41.768Z,49.87
2018-11-25T16:27:07.785Z,50.60
2018-11-25T16:29:33.784Z,49.75
2018-11-25T16:31:59.795Z,50.61
2018-11-25T16:34:25.732Z,51.40
2018-11-25T16:36:52.927Z,50.01
2018-11-25T16:39:18.894Z,50.63
2018-11-25T16:41:44.857Z,50.25
2018-11-25T16:44:10.905Z,50.79
2018-11-25T16:46:37.036Z,50.62
2018-11-25T16:49:04.884Z,50.98
2018-11-25T16:51:30.852Z,50.00
2018-11-25T16:53:56.855Z,50.69
2018-11-25T16:56:23.752Z,49.50
2018-11-25T16:58:49.756Z,49.99
2018-11-25T17:01:15.729Z,50.75
2018-11-25T17:03:41.684Z,51.27
2018-11-25T17:06:07.762Z,53.27
2018-11-25T17:08:33.737Z,51.67
2018-11-25T17:10:59.751Z,49.75
2018-11-25T17:13:25.897Z,49.57
2018-11-25T17:15:51.929Z,50.29
2018-11-25T17:18:17.917Z,50.80
2018-11-25T17:20:43.897Z,53.13
2018-11-25T17:23:09.922Z,52.96
2018-11-25T17:25:35.924Z,52.87
2018-11-25T17:28:01.902Z,53.06
2018-11-25T17:30:28.017Z,52.34
2018-11-25T17:32:53.990Z,53.48
2018-11-25T17:35:19.998Z,54.20
2018-11-25T17:37:46.102Z,55.28
2018-11-25T17:40:12.088Z,54.84
2018-11-25T17:42:38.153Z,54.35
2018-11-25T17:45:04.151Z,53.34
2018-11-25T17:47:35.284Z,53.37
2018-11-25T17:50:01.283Z,53.19
2018-11-25T17:52:27.266Z,52.96
2018-11-25T17:54:53.218Z,55.11
2018-11-25T17:57:19.263Z,54.53
2018-11-25T17:59:49.395Z,53.48
2018-11-25T18:02:18.547Z,53.58
2018-11-25T18:04:45.516Z,53.57
2018-11-25T18:09:43.340Z,54.35
2018-11-25T18:12:09.349Z,54.29
2018-11-25T18:14:35.531Z,53.26
2018-11-25T18:17:01.675Z,54.11
2018-11-25T18:19:28.879Z,53.60
2018-11-25T18:21:56.617Z,54.09
2018-11-25T18:24:22.640Z,54.39
2018-11-25T18:26:48.710Z,54.40
2018-11-25T18:29:14.664Z,54.24
2018-11-25T18:31:40.674Z,54.96
2018-11-25T18:34:06.635Z,54.62
2018-11-25T18:36:33.739Z,55.04
2018-11-25T18:38:59.704Z,55.35
2018-11-25T18:41:25.694Z,55.39
2018-11-25T18:43:51.703Z,56.48
2018-11-25T18:46:17.678Z,56.04
2018-11-25T18:48:43.724Z,55.30
2018-11-25T18:51:09.722Z,55.56
2018-11-25T18:53:35.781Z,54.60
2018-11-25T18:56:01.792Z,55.18
2018-11-25T18:58:27.763Z,55.55
2018-11-25T19:00:53.707Z,54.81
2018-11-25T19:03:19.700Z,54.54
2018-11-25T19:05:45.725Z,53.53
2018-11-25T19:08:11.812Z,53.72
2018-11-25T19:10:37.860Z,53.27
2018-11-25T19:13:03.894Z,53.23
2018-11-25T19:15:29.881Z,53.73
2018-11-25T19:17:55.943Z,54.43
2018-11-25T19:20:22.011Z,54.56
2018-11-25T19:22:49.434Z,54.38
2018-11-25T19:25:15.562Z,54.56
2018-11-25T19:27:41.576Z,53.97
2018-11-25T19:30:07.551Z,54.73
2018-11-25T19:32:34.634Z,56.30
2018-11-25T19:35:00.628Z,56.18
2018-11-25T19:37:27.796Z,56.58
2018-11-25T19:42:39.113Z,54.32
2018-11-25T19:45:06.291Z,54.47
2018-11-25T19:47:32.438Z,55.04
2018-11-25T19:49:58.433Z,56.03
2018-11-25T19:52:24.489Z,54.99
2018-11-25T19:54:50.451Z,53.78
2018-11-25T19:57:16.433Z,53.34
2018-11-25T19:59:42.387Z,53.97
2018-11-25T20:02:08.964Z,52.65
2018-11-25T20:04:34.912Z,53.62
2018-11-25T20:07:00.875Z,54.16
2018-11-25T20:09:26.852Z,54.50
2018-11-25T20:11:52.921Z,54.23
2018-11-25T20:14:18.887Z,53.64
2018-11-25T20:16:44.858Z,54.27
2018-11-25T20:19:10.834Z,53.43
2018-11-25T20:21:36.794Z,54.36
2018-11-25T20:24:02.745Z,55.35
2018-11-25T20:26:28.750Z,55.24
2018-11-25T20:28:54.726Z,55.05
2018-11-25T20:31:20.697Z,55.01
2018-11-25T20:33:51.532Z,54.09
2018-11-25T20:36:12.683Z,54.61
2018-11-25T20:38:38.722Z,55.28
2018-11-25T20:41:04.694Z,55.22
2018-11-25T20:43:30.737Z,55.04
2018-11-25T20:45:56.699Z,54.50
2018-11-25T20:48:23.651Z,54.06
2018-11-25T20:50:49.658Z,53.62
2018-11-25T20:53:15.614Z,53.92
2018-11-25T20:55:41.555Z,53.05
2018-11-25T20:58:08.581Z,52.74
2018-11-25T21:00:34.528Z,53.59
2018-11-25T21:03:00.530Z,54.27
2018-11-25T21:05:26.558Z,53.43
2018-11-25T21:07:52.528Z,53.44
2018-11-25T21:10:20.646Z,53.39
2018-11-25T21:12:46.597Z,54.34
2018-11-25T21:15:12.548Z,54.55
2018-11-25T21:17:39.101Z,53.79
2018-11-25T21:20:06.154Z,53.35
2018-11-25T21:22:32.156Z,53.35
2018-11-25T21:24:58.184Z,53.95
2018-11-25T21:27:24.187Z,54.48
2018-11-25T21:29:50.248Z,53.42
2018-11-25T21:32:16.354Z,53.62
2018-11-25T21:34:42.541Z,54.36
2018-11-25T21:37:08.486Z,54.50
2018-11-25T21:39:34.461Z,54.11
2018-11-25T21:42:01.511Z,54.33
2018-11-25T21:44:27.467Z,54.19
2018-11-25T21:46:53.459Z,53.94
2018-11-25T21:49:19.449Z,53.67
2018-11-25T21:51:45.425Z,54.59
2018-11-25T21:54:11.403Z,55.23
2018-11-25T21:56:37.392Z,54.93
2018-11-25T21:59:03.382Z,53.85
2018-11-25T22:01:29.735Z,54.53
2018-11-25T22:03:55.760Z,53.97
2018-11-25T22:06:21.740Z,54.29
2018-11-25T22:08:47.742Z,54.37
2018-11-25T22:11:13.722Z,54.51
2018-11-25T22:13:39.689Z,55.30
2018-11-25T22:16:05.715Z,55.47
2018-11-25T22:18:31.670Z,55.99
2018-11-25T22:20:57.672Z,54.79
2018-11-25T22:23:23.615Z,55.67
2018-11-25T22:25:49.558Z,55.67
2018-11-25T22:28:15.534Z,56.15
2018-11-25T22:30:41.719Z,54.47
2018-11-25T22:33:07.695Z,56.36
2018-11-25T22:35:33.662Z,56.32
2018-11-25T22:37:59.623Z,55.85
2018-11-25T22:40:25.582Z,54.51
2018-11-25T22:42:51.548Z,53.53
2018-11-25T22:45:17.503Z,53.97
2018-11-25T22:47:43.439Z,53.82
2018-11-25T22:50:09.406Z,54.28
2018-11-25T22:52:35.391Z,54.34
2018-11-25T22:55:01.368Z,54.85
2018-11-25T22:57:27.353Z,53.92
2018-11-25T22:59:53.306Z,54.33
2018-11-25T23:02:19.287Z,53.73
2018-11-25T23:04:45.318Z,53.60
2018-11-25T23:07:11.294Z,54.00
2018-11-25T23:09:37.255Z,55.17
2018-11-25T23:12:03.199Z,54.36
2018-11-25T23:14:29.162Z,53.75
2018-11-25T23:16:55.119Z,53.19
2018-11-25T23:19:21.106Z,54.47
2018-11-25T23:21:47.043Z,54.91
2018-11-25T23:24:12.976Z,54.35
2018-11-25T23:26:38.949Z,53.89
2018-11-25T23:29:04.910Z,53.71
2018-11-25T23:31:30.890Z,52.70
2018-11-25T23:33:56.908Z,54.01
2018-11-25T23:36:22.865Z,54.04
2018-11-25T23:38:48.828Z,54.70
2018-11-25T23:41:14.798Z,54.12
2018-11-25T23:43:40.768Z,54.06
2018-11-25T23:46:06.758Z,54.24
2018-11-25T23:48:32.742Z,53.63
2018-11-25T23:50:58.710Z,53.91
2018-11-25T23:53:24.692Z,53.93
2018-11-25T23:55:50.684Z,53.73
2018-11-25T23:58:16.670Z,54.52
